sensor_id;sensor_type;location;lat;lon;timestamp;P1;durP1;ratioP1;P2;durP2;ratioP2
66927;SDS011;59882;45.624;11.698;2023-04-03T00:02:06;17.73;;;12.80;;
66927;SDS011;59882;45.624;11.698;2023-04-03T00:04:32;19.58;;;12.88;;
66927;SDS011;59882;45.624;11.698;2023-04-03T00:06:58;15.50;;;11.73;;
66927;SDS011;59882;45.624;11.698;2023-04-03T00:09:23;17.95;;;12.93;;
66927;SDS011;59882;45.624;11.698;2023-04-03T00:11:49;15.60;;;11.10;;
66927;SDS011;59882;45.624;11.698;2023-04-03T00:14:15;19.58;;;10.65;;
66927;SDS011;59882;45.624;11.698;2023-04-03T00:16:40;20.13;;;11.70;;
66927;SDS011;59882;45.624;11.698;2023-04-03T00:19:06;15.53;;;10.10;;
66927;SDS011;59882;45.624;11.698;2023-04-03T00:21:32;16.10;;;11.73;;
66927;SDS011;59882;45.624;11.698;2023-04-03T00:23:57;16.23;;;10.90;;
66927;SDS011;59882;45.624;11.698;2023-04-03T00:26:23;14.73;;;11.27;;
66927;SDS011;59882;45.624;11.698;2023-04-03T00:28:48;15.20;;;10.77;;
66927;SDS011;59882;45.624;11.698;2023-04-03T00:31:15;14.75;;;9.93;;
66927;SDS011;59882;45.624;11.698;2023-04-03T00:33:41;13.18;;;9.43;;
66927;SDS011;59882;45.624;11.698;2023-04-03T00:36:07;13.37;;;9.40;;
66927;SDS011;59882;45.624;11.698;2023-04-03T00:38:34;13.90;;;10.70;;
66927;SDS011;59882;45.624;11.698;2023-04-03T00:41:00;14.20;;;9.55;;
66927;SDS011;59882;45.624;11.698;2023-04-03T00:43:27;12.52;;;8.60;;
66927;SDS011;59882;45.624;11.698;2023-04-03T00:45:56;13.33;;;8.93;;
66927;SDS011;59882;45.624;11.698;2023-04-03T00:48:24;11.73;;;7.57;;
66927;SDS011;59882;45.624;11.698;2023-04-03T00:50:53;12.90;;;8.45;;
66927;SDS011;59882;45.624;11.698;2023-04-03T00:53:25;11.33;;;7.97;;
66927;SDS011;59882;45.624;11.698;2023-04-03T00:55:54;12.82;;;8.57;;
66927;SDS011;59882;45.624;11.698;2023-04-03T00:58:22;15.38;;;8.80;;
66927;SDS011;59882;45.624;11.698;2023-04-03T01:01:14;14.40;;;8.30;;
66927;SDS011;59882;45.624;11.698;2023-04-03T01:03:43;13.85;;;8.55;;
66927;SDS011;59882;45.624;11.698;2023-04-03T01:06:09;14.20;;;8.10;;
66927;SDS011;59882;45.624;11.698;2023-04-03T01:08:35;14.23;;;7.65;;
66927;SDS011;59882;45.624;11.698;2023-04-03T01:11:01;12.53;;;8.53;;
66927;SDS011;59882;45.624;11.698;2023-04-03T01:13:31;14.55;;;8.90;;
66927;SDS011;59882;45.624;11.698;2023-04-03T01:16:00;14.40;;;9.10;;
66927;SDS011;59882;45.624;11.698;2023-04-03T01:18:28;14.32;;;9.10;;
66927;SDS011;59882;45.624;11.698;2023-04-03T01:26:44;15.13;;;8.98;;
66927;SDS011;59882;45.624;11.698;2023-04-03T01:29:10;14.57;;;8.97;;
66927;SDS011;59882;45.624;11.698;2023-04-03T01:31:49;11.50;;;7.70;;
66927;SDS011;59882;45.624;11.698;2023-04-03T01:34:18;12.95;;;8.13;;
66927;SDS011;59882;45.624;11.698;2023-04-03T01:36:45;13.77;;;8.83;;
66927;SDS011;59882;45.624;11.698;2023-04-03T01:39:11;13.38;;;9.15;;
66927;SDS011;59882;45.624;11.698;2023-04-03T01:41:37;12.70;;;8.52;;
66927;SDS011;59882;45.624;11.698;2023-04-03T01:44:02;12.60;;;8.10;;
66927;SDS011;59882;45.624;11.698;2023-04-03T01:46:29;12.90;;;8.18;;
66927;SDS011;59882;45.624;11.698;2023-04-03T01:48:55;13.02;;;8.63;;
66927;SDS011;59882;45.624;11.698;2023-04-03T01:51:21;14.03;;;8.83;;
66927;SDS011;59882;45.624;11.698;2023-04-03T01:53:47;17.90;;;8.40;;
66927;SDS011;59882;45.624;11.698;2023-04-03T01:56:12;13.77;;;9.20;;
66927;SDS011;59882;45.624;11.698;2023-04-03T01:58:38;15.30;;;9.30;;
66927;SDS011;59882;45.624;11.698;2023-04-03T02:01:04;14.70;;;9.00;;
66927;SDS011;59882;45.624;11.698;2023-04-03T02:03:30;13.73;;;9.48;;
66927;SDS011;59882;45.624;11.698;2023-04-03T02:05:55;13.32;;;8.98;;
66927;SDS011;59882;45.624;11.698;2023-04-03T02:08:21;15.73;;;9.30;;
66927;SDS011;59882;45.624;11.698;2023-04-03T02:10:47;13.23;;;9.70;;
66927;SDS011;59882;45.624;11.698;2023-04-03T02:13:14;15.70;;;9.73;;
66927;SDS011;59882;45.624;11.698;2023-04-03T02:15:40;11.67;;;8.10;;
66927;SDS011;59882;45.624;11.698;2023-04-03T02:18:06;13.95;;;8.52;;
66927;SDS011;59882;45.624;11.698;2023-04-03T02:20:32;13.23;;;8.95;;
66927;SDS011;59882;45.624;11.698;2023-04-03T02:22:58;14.33;;;8.57;;
66927;SDS011;59882;45.624;11.698;2023-04-03T02:25:24;16.65;;;8.98;;
66927;SDS011;59882;45.624;11.698;2023-04-03T02:27:50;13.43;;;7.93;;
66927;SDS011;59882;45.624;11.698;2023-04-03T02:30:15;16.33;;;8.60;;
66927;SDS011;59882;45.624;11.698;2023-04-03T02:32:41;16.30;;;8.17;;
66927;SDS011;59882;45.624;11.698;2023-04-03T02:35:08;14.23;;;7.63;;
66927;SDS011;59882;45.624;11.698;2023-04-03T02:37:34;15.20;;;7.93;;
66927;SDS011;59882;45.624;11.698;2023-04-03T02:40:00;17.30;;;8.10;;
66927;SDS011;59882;45.624;11.698;2023-04-03T02:42:25;16.48;;;7.88;;
66927;SDS011;59882;45.624;11.698;2023-04-03T02:44:51;13.70;;;7.63;;
66927;SDS011;59882;45.624;11.698;2023-04-03T02:47:17;12.80;;;7.80;;
66927;SDS011;59882;45.624;11.698;2023-04-03T02:49:42;14.97;;;7.50;;
66927;SDS011;59882;45.624;11.698;2023-04-03T02:52:12;13.00;;;7.00;;
66927;SDS011;59882;45.624;11.698;2023-04-03T02:54:38;11.77;;;7.25;;
66927;SDS011;59882;45.624;11.698;2023-04-03T02:57:03;12.13;;;6.00;;
66927;SDS011;59882;45.624;11.698;2023-04-03T02:59:29;11.00;;;5.73;;
66927;SDS011;59882;45.624;11.698;2023-04-03T03:01:55;27.33;;;6.80;;
66927;SDS011;59882;45.624;11.698;2023-04-03T03:04:21;26.77;;;5.82;;
66927;SDS011;59882;45.624;11.698;2023-04-03T03:06:47;11.23;;;5.35;;
66927;SDS011;59882;45.624;11.698;2023-04-03T03:09:12;18.63;;;4.93;;
66927;SDS011;59882;45.624;11.698;2023-04-03T03:11:38;9.65;;;4.60;;
66927;SDS011;59882;45.624;11.698;2023-04-03T03:14:04;8.23;;;3.70;;
66927;SDS011;59882;45.624;11.698;2023-04-03T03:16:30;12.55;;;4.82;;
66927;SDS011;59882;45.624;11.698;2023-04-03T03:18:56;10.90;;;4.00;;
66927;SDS011;59882;45.624;11.698;2023-04-03T03:21:21;8.43;;;4.43;;
66927;SDS011;59882;45.624;11.698;2023-04-03T03:23:47;8.53;;;3.83;;
66927;SDS011;59882;45.624;11.698;2023-04-03T03:26:13;7.27;;;4.10;;
66927;SDS011;59882;45.624;11.698;2023-04-03T03:28:38;10.37;;;4.77;;
66927;SDS011;59882;45.624;11.698;2023-04-03T03:31:05;13.10;;;4.35;;
66927;SDS011;59882;45.624;11.698;2023-04-03T03:33:31;9.65;;;4.55;;
66927;SDS011;59882;45.624;11.698;2023-04-03T03:35:57;11.03;;;4.73;;
66927;SDS011;59882;45.624;11.698;2023-04-03T03:38:23;9.40;;;4.15;;
66927;SDS011;59882;45.624;11.698;2023-04-03T03:40:49;8.05;;;4.22;;
66927;SDS011;59882;45.624;11.698;2023-04-03T03:43:16;8.27;;;3.77;;
66927;SDS011;59882;45.624;11.698;2023-04-03T03:45:42;15.88;;;4.70;;
66927;SDS011;59882;45.624;11.698;2023-04-03T03:48:08;8.38;;;3.92;;
66927;SDS011;59882;45.624;11.698;2023-04-03T03:50:33;8.73;;;3.97;;
66927;SDS011;59882;45.624;11.698;2023-04-03T03:52:59;8.00;;;3.92;;
66927;SDS011;59882;45.624;11.698;2023-04-03T03:55:25;9.83;;;3.57;;
66927;SDS011;59882;45.624;11.698;2023-04-03T03:57:51;7.97;;;3.25;;
66927;SDS011;59882;45.624;11.698;2023-04-03T04:00:16;8.65;;;2.72;;
66927;SDS011;59882;45.624;11.698;2023-04-03T04:02:42;25.97;;;4.73;;
66927;SDS011;59882;45.624;11.698;2023-04-03T04:05:08;12.18;;;3.00;;
66927;SDS011;59882;45.624;11.698;2023-04-03T04:07:34;8.07;;;3.27;;
66927;SDS011;59882;45.624;11.698;2023-04-03T04:10:00;6.80;;;3.10;;
66927;SDS011;59882;45.624;11.698;2023-04-03T04:12:25;12.52;;;3.20;;
66927;SDS011;59882;45.624;11.698;2023-04-03T04:14:51;7.37;;;3.40;;
66927;SDS011;59882;45.624;11.698;2023-04-03T04:17:16;7.67;;;2.80;;
66927;SDS011;59882;45.624;11.698;2023-04-03T04:19:42;6.15;;;2.10;;
66927;SDS011;59882;45.624;11.698;2023-04-03T04:22:08;6.97;;;2.13;;
66927;SDS011;59882;45.624;11.698;2023-04-03T04:24:34;11.38;;;2.65;;
66927;SDS011;59882;45.624;11.698;2023-04-03T04:26:59;7.60;;;3.00;;
66927;SDS011;59882;45.624;11.698;2023-04-03T04:29:25;6.40;;;2.45;;
66927;SDS011;59882;45.624;11.698;2023-04-03T04:31:50;10.67;;;2.67;;
66927;SDS011;59882;45.624;11.698;2023-04-03T04:34:16;6.57;;;2.50;;
66927;SDS011;59882;45.624;11.698;2023-04-03T04:36:42;8.30;;;2.30;;
66927;SDS011;59882;45.624;11.698;2023-04-03T04:39:07;7.57;;;1.90;;
66927;SDS011;59882;45.624;11.698;2023-04-03T04:41:33;8.80;;;2.85;;
66927;SDS011;59882;45.624;11.698;2023-04-03T04:43:59;10.27;;;2.95;;
66927;SDS011;59882;45.624;11.698;2023-04-03T04:46:25;8.10;;;3.03;;
66927;SDS011;59882;45.624;11.698;2023-04-03T04:48:51;8.00;;;2.65;;
66927;SDS011;59882;45.624;11.698;2023-04-03T04:51:17;8.73;;;2.90;;
66927;SDS011;59882;45.624;11.698;2023-04-03T04:53:42;9.20;;;2.93;;
66927;SDS011;59882;45.624;11.698;2023-04-03T04:56:09;9.18;;;2.35;;
66927;SDS011;59882;45.624;11.698;2023-04-03T04:58:35;9.57;;;2.65;;
66927;SDS011;59882;45.624;11.698;2023-04-03T05:01:04;7.45;;;2.50;;
66927;SDS011;59882;45.624;11.698;2023-04-03T05:03:32;7.17;;;2.63;;
66927;SDS011;59882;45.624;11.698;2023-04-03T05:05:58;23.48;;;4.43;;
66927;SDS011;59882;45.624;11.698;2023-04-03T05:08:24;16.80;;;3.92;;
66927;SDS011;59882;45.624;11.698;2023-04-03T05:10:50;10.87;;;3.00;;
66927;SDS011;59882;45.624;11.698;2023-04-03T05:13:15;9.80;;;2.78;;
66927;SDS011;59882;45.624;11.698;2023-04-03T05:15:41;6.80;;;2.35;;
66927;SDS011;59882;45.624;11.698;2023-04-03T05:18:07;10.07;;;3.10;;
66927;SDS011;59882;45.624;11.698;2023-04-03T05:20:33;8.68;;;2.83;;
66927;SDS011;59882;45.624;11.698;2023-04-03T05:22:59;12.93;;;3.27;;
66927;SDS011;59882;45.624;11.698;2023-04-03T05:25:25;13.88;;;3.35;;
66927;SDS011;59882;45.624;11.698;2023-04-03T05:27:51;8.50;;;3.10;;
66927;SDS011;59882;45.624;11.698;2023-04-03T05:30:16;12.18;;;3.35;;
66927;SDS011;59882;45.624;11.698;2023-04-03T05:32:42;16.30;;;4.17;;
66927;SDS011;59882;45.624;11.698;2023-04-03T05:35:08;16.75;;;4.40;;
66927;SDS011;59882;45.624;11.698;2023-04-03T05:37:34;16.75;;;4.00;;
66927;SDS011;59882;45.624;11.698;2023-04-03T05:40:00;18.88;;;4.63;;
66927;SDS011;59882;45.624;11.698;2023-04-03T05:42:26;14.27;;;4.20;;
66927;SDS011;59882;45.624;11.698;2023-04-03T05:44:52;17.53;;;3.97;;
66927;SDS011;59882;45.624;11.698;2023-04-03T05:47:18;12.98;;;4.20;;
66927;SDS011;59882;45.624;11.698;2023-04-03T05:49:44;12.93;;;4.00;;
66927;SDS011;59882;45.624;11.698;2023-04-03T05:52:29;16.13;;;3.33;;
66927;SDS011;59882;45.624;11.698;2023-04-03T05:54:57;12.43;;;2.72;;
66927;SDS011;59882;45.624;11.698;2023-04-03T05:57:23;7.80;;;2.03;;
66927;SDS011;59882;45.624;11.698;2023-04-03T05:59:49;7.00;;;1.50;;
66927;SDS011;59882;45.624;11.698;2023-04-03T06:02:21;8.18;;;1.40;;
66927;SDS011;59882;45.624;11.698;2023-04-03T06:04:48;6.47;;;1.50;;
66927;SDS011;59882;45.624;11.698;2023-04-03T06:07:18;5.97;;;1.95;;
66927;SDS011;59882;45.624;11.698;2023-04-03T06:09:46;10.38;;;2.10;;
66927;SDS011;59882;45.624;11.698;2023-04-03T06:12:13;7.57;;;1.70;;
66927;SDS011;59882;45.624;11.698;2023-04-03T06:14:38;7.68;;;2.28;;
66927;SDS011;59882;45.624;11.698;2023-04-03T06:17:04;6.85;;;2.15;;
66927;SDS011;59882;45.624;11.698;2023-04-03T06:19:31;9.60;;;2.10;;
66927;SDS011;59882;45.624;11.698;2023-04-03T06:21:56;13.38;;;2.97;;
66927;SDS011;59882;45.624;11.698;2023-04-03T06:24:22;8.13;;;2.40;;
66927;SDS011;59882;45.624;11.698;2023-04-03T06:26:49;7.20;;;2.40;;
66927;SDS011;59882;45.624;11.698;2023-04-03T06:29:16;6.32;;;2.10;;
66927;SDS011;59882;45.624;11.698;2023-04-03T06:31:42;4.70;;;2.20;;
66927;SDS011;59882;45.624;11.698;2023-04-03T06:34:07;9.63;;;2.47;;
66927;SDS011;59882;45.624;11.698;2023-04-03T06:36:33;10.73;;;2.17;;
66927;SDS011;59882;45.624;11.698;2023-04-03T06:38:59;6.80;;;2.03;;
66927;SDS011;59882;45.624;11.698;2023-04-03T06:41:26;6.97;;;2.17;;
66927;SDS011;59882;45.624;11.698;2023-04-03T06:43:52;5.20;;;2.10;;
66927;SDS011;59882;45.624;11.698;2023-04-03T06:46:18;6.43;;;2.40;;
66927;SDS011;59882;45.624;11.698;2023-04-03T06:48:45;12.73;;;3.08;;
66927;SDS011;59882;45.624;11.698;2023-04-03T06:51:18;7.68;;;1.80;;
66927;SDS011;59882;45.624;11.698;2023-04-03T06:53:46;35.35;;;4.35;;
66927;SDS011;59882;45.624;11.698;2023-04-03T06:56:13;14.90;;;2.40;;
66927;SDS011;59882;45.624;11.698;2023-04-03T06:58:39;8.07;;;2.67;;
66927;SDS011;59882;45.624;11.698;2023-04-03T07:01:05;8.35;;;2.42;;
66927;SDS011;59882;45.624;11.698;2023-04-03T07:03:31;7.90;;;2.60;;
66927;SDS011;59882;45.624;11.698;2023-04-03T07:05:56;9.27;;;2.17;;
66927;SDS011;59882;45.624;11.698;2023-04-03T07:08:22;7.67;;;3.10;;
66927;SDS011;59882;45.624;11.698;2023-04-03T07:10:48;8.18;;;2.13;;
66927;SDS011;59882;45.624;11.698;2023-04-03T07:13:15;7.05;;;2.63;;
66927;SDS011;59882;45.624;11.698;2023-04-03T07:15:40;6.03;;;2.67;;
66927;SDS011;59882;45.624;11.698;2023-04-03T07:18:06;9.93;;;5.17;;
66927;SDS011;59882;45.624;11.698;2023-04-03T07:20:32;11.55;;;3.00;;
66927;SDS011;59882;45.624;11.698;2023-04-03T07:22:58;7.38;;;3.85;;
66927;SDS011;59882;45.624;11.698;2023-04-03T07:25:24;8.68;;;3.25;;
66927;SDS011;59882;45.624;11.698;2023-04-03T07:27:50;8.27;;;2.67;;
66927;SDS011;59882;45.624;11.698;2023-04-03T07:30:15;6.70;;;2.53;;
66927;SDS011;59882;45.624;11.698;2023-04-03T07:32:41;11.50;;;3.07;;
66927;SDS011;59882;45.624;11.698;2023-04-03T07:35:07;7.33;;;2.27;;
66927;SDS011;59882;45.624;11.698;2023-04-03T07:37:33;10.60;;;3.05;;
66927;SDS011;59882;45.624;11.698;2023-04-03T07:39:58;7.23;;;2.23;;
66927;SDS011;59882;45.624;11.698;2023-04-03T07:42:25;7.70;;;2.00;;
66927;SDS011;59882;45.624;11.698;2023-04-03T07:44:52;10.20;;;2.03;;
66927;SDS011;59882;45.624;11.698;2023-04-03T07:47:18;10.25;;;2.60;;
66927;SDS011;59882;45.624;11.698;2023-04-03T07:49:45;8.05;;;2.15;;
66927;SDS011;59882;45.624;11.698;2023-04-03T07:52:11;11.43;;;2.67;;
66927;SDS011;59882;45.624;11.698;2023-04-03T07:54:37;8.50;;;2.50;;
66927;SDS011;59882;45.624;11.698;2023-04-03T07:57:03;9.55;;;2.30;;
66927;SDS011;59882;45.624;11.698;2023-04-03T07:59:29;12.05;;;2.58;;
66927;SDS011;59882;45.624;11.698;2023-04-03T08:01:54;6.03;;;1.53;;
66927;SDS011;59882;45.624;11.698;2023-04-03T08:04:20;4.15;;;1.40;;
66927;SDS011;59882;45.624;11.698;2023-04-03T08:06:46;5.43;;;1.57;;
66927;SDS011;59882;45.624;11.698;2023-04-03T08:09:11;11.03;;;2.37;;
66927;SDS011;59882;45.624;11.698;2023-04-03T08:11:38;14.85;;;2.40;;
66927;SDS011;59882;45.624;11.698;2023-04-03T08:14:04;6.10;;;1.70;;
66927;SDS011;59882;45.624;11.698;2023-04-03T08:16:30;9.03;;;1.73;;
66927;SDS011;59882;45.624;11.698;2023-04-03T08:18:56;6.18;;;1.55;;
66927;SDS011;59882;45.624;11.698;2023-04-03T08:21:21;7.57;;;1.50;;
66927;SDS011;59882;45.624;11.698;2023-04-03T08:23:48;6.40;;;1.77;;
66927;SDS011;59882;45.624;11.698;2023-04-03T08:26:19;7.53;;;1.63;;
66927;SDS011;59882;45.624;11.698;2023-04-03T08:28:46;7.53;;;1.90;;
66927;SDS011;59882;45.624;11.698;2023-04-03T08:31:14;7.57;;;1.70;;
66927;SDS011;59882;45.624;11.698;2023-04-03T08:33:42;6.33;;;1.60;;
66927;SDS011;59882;45.624;11.698;2023-04-03T08:36:15;7.43;;;1.50;;
66927;SDS011;59882;45.624;11.698;2023-04-03T08:38:43;7.40;;;1.75;;
66927;SDS011;59882;45.624;11.698;2023-04-03T08:44:02;5.82;;;1.42;;
66927;SDS011;59882;45.624;11.698;2023-04-03T08:46:26;7.05;;;1.48;;
66927;SDS011;59882;45.624;11.698;2023-04-03T08:52:10;9.45;;;2.38;;
66927;SDS011;59882;45.624;11.698;2023-04-03T08:54:42;5.20;;;1.63;;
66927;SDS011;59882;45.624;11.698;2023-04-03T09:00:24;9.18;;;1.60;;
66927;SDS011;59882;45.624;11.698;2023-04-03T09:02:55;9.27;;;1.60;;
66927;SDS011;59882;45.624;11.698;2023-04-03T09:05:36;7.82;;;1.98;;
66927;SDS011;59882;45.624;11.698;2023-04-03T09:08:17;9.18;;;1.98;;
66927;SDS011;59882;45.624;11.698;2023-04-03T09:10:48;7.45;;;1.77;;
66927;SDS011;59882;45.624;11.698;2023-04-03T09:15:47;6.60;;;1.53;;
66927;SDS011;59882;45.624;11.698;2023-04-03T09:18:15;8.35;;;1.83;;
66927;SDS011;59882;45.624;11.698;2023-04-03T09:23:50;7.70;;;1.80;;
66927;SDS011;59882;45.624;11.698;2023-04-03T09:26:18;12.13;;;1.42;;
66927;SDS011;59882;45.624;11.698;2023-04-03T09:28:54;7.70;;;1.80;;
66927;SDS011;59882;45.624;11.698;2023-04-03T09:31:24;8.07;;;1.60;;
66927;SDS011;59882;45.624;11.698;2023-04-03T09:34:01;10.20;;;2.00;;
66927;SDS011;59882;45.624;11.698;2023-04-03T09:36:49;9.10;;;1.87;;
66927;SDS011;59882;45.624;11.698;2023-04-03T09:39:18;5.53;;;1.35;;
66927;SDS011;59882;45.624;11.698;2023-04-03T09:41:56;11.40;;;1.67;;
66927;SDS011;59882;45.624;11.698;2023-04-03T09:44:26;5.30;;;1.70;;
66927;SDS011;59882;45.624;11.698;2023-04-03T09:46:57;6.90;;;1.83;;
66927;SDS011;59882;45.624;11.698;2023-04-03T09:49:23;11.83;;;2.10;;
66927;SDS011;59882;45.624;11.698;2023-04-03T09:51:49;7.82;;;1.88;;
66927;SDS011;59882;45.624;11.698;2023-04-03T09:57:07;9.68;;;2.13;;
66927;SDS011;59882;45.624;11.698;2023-04-03T09:59:37;6.20;;;1.53;;
66927;SDS011;59882;45.624;11.698;2023-04-03T10:04:57;6.35;;;1.67;;
66927;SDS011;59882;45.624;11.698;2023-04-03T10:07:31;9.07;;;2.20;;
66927;SDS011;59882;45.624;11.698;2023-04-03T10:12:45;7.88;;;2.10;;
66927;SDS011;59882;45.624;11.698;2023-04-03T10:15:14;6.88;;;1.90;;
66927;SDS011;59882;45.624;11.698;2023-04-03T10:17:57;6.10;;;1.95;;
66927;SDS011;59882;45.624;11.698;2023-04-03T10:20:37;7.13;;;2.60;;
66927;SDS011;59882;45.624;11.698;2023-04-03T10:36:47;11.13;;;2.20;;
66927;SDS011;59882;45.624;11.698;2023-04-03T10:42:39;7.90;;;2.10;;
66927;SDS011;59882;45.624;11.698;2023-04-03T10:53:37;7.28;;;2.00;;
66927;SDS011;59882;45.624;11.698;2023-04-03T10:59:23;5.60;;;2.20;;
66927;SDS011;59882;45.624;11.698;2023-04-03T11:01:55;6.17;;;1.87;;
66927;SDS011;59882;45.624;11.698;2023-04-03T11:04:27;6.55;;;2.03;;
66927;SDS011;59882;45.624;11.698;2023-04-03T11:07:15;8.35;;;1.95;;
66927;SDS011;59882;45.624;11.698;2023-04-03T11:09:46;10.57;;;2.35;;
66927;SDS011;59882;45.624;11.698;2023-04-03T11:14:42;9.60;;;2.73;;
66927;SDS011;59882;45.624;11.698;2023-04-03T11:17:20;6.20;;;2.20;;
66927;SDS011;59882;45.624;11.698;2023-04-03T11:22:42;9.50;;;2.73;;
66927;SDS011;59882;45.624;11.698;2023-04-03T11:27:59;6.87;;;2.90;;
66927;SDS011;59882;45.624;11.698;2023-04-03T11:30:48;7.32;;;2.40;;
66927;SDS011;59882;45.624;11.698;2023-04-03T11:33:32;6.82;;;2.67;;
66927;SDS011;59882;45.624;11.698;2023-04-03T11:36:12;6.88;;;2.22;;
66927;SDS011;59882;45.624;11.698;2023-04-03T11:38:49;9.15;;;2.42;;
66927;SDS011;59882;45.624;11.698;2023-04-03T11:41:25;14.20;;;2.70;;
66927;SDS011;59882;45.624;11.698;2023-04-03T11:43:57;12.13;;;1.80;;
66927;SDS011;59882;45.624;11.698;2023-04-03T11:58:30;7.68;;;2.10;;
66927;SDS011;59882;45.624;11.698;2023-04-03T12:08:43;6.20;;;2.13;;
66927;SDS011;59882;45.624;11.698;2023-04-03T12:19:02;8.63;;;2.88;;
66927;SDS011;59882;45.624;11.698;2023-04-03T12:43:20;9.37;;;2.60;;
66927;SDS011;59882;45.624;11.698;2023-04-03T12:48:37;7.22;;;2.60;;
66927;SDS011;59882;45.624;11.698;2023-04-03T12:51:16;7.32;;;3.00;;
66927;SDS011;59882;45.624;11.698;2023-04-03T12:53:45;6.88;;;2.97;;
66927;SDS011;59882;45.624;11.698;2023-04-03T12:56:25;5.37;;;2.20;;
66927;SDS011;59882;45.624;11.698;2023-04-03T12:58:53;8.55;;;2.38;;
66927;SDS011;59882;45.624;11.698;2023-04-03T13:01:25;10.52;;;2.30;;
66927;SDS011;59882;45.624;11.698;2023-04-03T13:03:52;6.38;;;2.35;;
66927;SDS011;59882;45.624;11.698;2023-04-03T13:11:46;7.40;;;2.53;;
66927;SDS011;59882;45.624;11.698;2023-04-03T13:14:17;8.73;;;2.70;;
66927;SDS011;59882;45.624;11.698;2023-04-03T13:16:57;7.10;;;2.70;;
66927;SDS011;59882;45.624;11.698;2023-04-03T13:19:26;7.85;;;2.85;;
66927;SDS011;59882;45.624;11.698;2023-04-03T13:22:03;6.97;;;2.50;;
66927;SDS011;59882;45.624;11.698;2023-04-03T13:24:34;5.75;;;2.85;;
66927;SDS011;59882;45.624;11.698;2023-04-03T13:27:02;4.47;;;2.75;;
66927;SDS011;59882;45.624;11.698;2023-04-03T13:29:31;7.97;;;2.50;;
66927;SDS011;59882;45.624;11.698;2023-04-03T13:31:59;6.00;;;2.40;;
66927;SDS011;59882;45.624;11.698;2023-04-03T13:34:27;7.57;;;2.40;;
66927;SDS011;59882;45.624;11.698;2023-04-03T13:37:00;4.68;;;2.25;;
66927;SDS011;59882;45.624;11.698;2023-04-03T13:39:37;4.75;;;2.33;;
66927;SDS011;59882;45.624;11.698;2023-04-03T13:42:15;7.05;;;2.28;;
66927;SDS011;59882;45.624;11.698;2023-04-03T13:44:46;3.97;;;2.40;;
66927;SDS011;59882;45.624;11.698;2023-04-03T13:47:15;4.00;;;2.43;;
66927;SDS011;59882;45.624;11.698;2023-04-03T13:49:45;4.20;;;1.92;;
66927;SDS011;59882;45.624;11.698;2023-04-03T13:52:29;4.65;;;2.50;;
66927;SDS011;59882;45.624;11.698;2023-04-03T13:55:02;5.93;;;2.20;;
66927;SDS011;59882;45.624;11.698;2023-04-03T13:57:54;4.60;;;2.85;;
66927;SDS011;59882;45.624;11.698;2023-04-03T14:00:34;6.00;;;2.60;;
66927;SDS011;59882;45.624;11.698;2023-04-03T14:03:50;4.72;;;2.53;;
66927;SDS011;59882;45.624;11.698;2023-04-03T14:05:57;5.85;;;2.30;;
66927;SDS011;59882;45.624;11.698;2023-04-03T14:08:25;5.97;;;2.75;;
66927;SDS011;59882;45.624;11.698;2023-04-03T14:10:50;6.67;;;3.00;;
66927;SDS011;59882;45.624;11.698;2023-04-03T14:13:17;6.30;;;3.03;;
66927;SDS011;59882;45.624;11.698;2023-04-03T14:15:45;4.47;;;2.85;;
66927;SDS011;59882;45.624;11.698;2023-04-03T14:18:13;5.57;;;3.08;;
66927;SDS011;59882;45.624;11.698;2023-04-03T14:20:44;5.17;;;2.63;;
66927;SDS011;59882;45.624;11.698;2023-04-03T14:23:10;4.82;;;2.00;;
66927;SDS011;59882;45.624;11.698;2023-04-03T14:25:36;9.63;;;2.97;;
66927;SDS011;59882;45.624;11.698;2023-04-03T14:28:16;7.07;;;2.03;;
66927;SDS011;59882;45.624;11.698;2023-04-03T14:30:43;8.10;;;1.65;;
66927;SDS011;59882;45.624;11.698;2023-04-03T14:33:12;7.82;;;1.50;;
66927;SDS011;59882;45.624;11.698;2023-04-03T14:35:40;5.55;;;1.42;;
66927;SDS011;59882;45.624;11.698;2023-04-03T14:38:23;8.60;;;2.17;;
66927;SDS011;59882;45.624;11.698;2023-04-03T14:40:51;8.15;;;1.80;;
66927;SDS011;59882;45.624;11.698;2023-04-03T14:43:18;7.40;;;2.15;;
66927;SDS011;59882;45.624;11.698;2023-04-03T14:45:45;10.00;;;2.30;;
66927;SDS011;59882;45.624;11.698;2023-04-03T14:48:16;6.40;;;1.58;;
66927;SDS011;59882;45.624;11.698;2023-04-03T14:50:44;9.27;;;1.93;;
66927;SDS011;59882;45.624;11.698;2023-04-03T14:53:11;9.82;;;1.75;;
66927;SDS011;59882;45.624;11.698;2023-04-03T14:55:39;12.00;;;2.25;;
66927;SDS011;59882;45.624;11.698;2023-04-03T14:58:08;8.00;;;1.20;;
66927;SDS011;59882;45.624;11.698;2023-04-03T15:00:38;8.02;;;1.00;;
66927;SDS011;59882;45.624;11.698;2023-04-03T15:03:03;13.83;;;1.47;;
66927;SDS011;59882;45.624;11.698;2023-04-03T15:05:29;10.10;;;1.13;;
66927;SDS011;59882;45.624;11.698;2023-04-03T15:07:55;5.17;;;1.10;;
66927;SDS011;59882;45.624;11.698;2023-04-03T15:12:50;8.73;;;1.08;;
66927;SDS011;59882;45.624;11.698;2023-04-03T15:15:18;9.40;;;1.15;;
66927;SDS011;59882;45.624;11.698;2023-04-03T15:17:45;4.20;;;0.80;;
66927;SDS011;59882;45.624;11.698;2023-04-03T15:20:17;6.25;;;0.93;;
66927;SDS011;59882;45.624;11.698;2023-04-03T15:22:44;11.10;;;1.50;;
66927;SDS011;59882;45.624;11.698;2023-04-03T15:25:10;9.40;;;1.57;;
66927;SDS011;59882;45.624;11.698;2023-04-03T15:27:36;7.73;;;1.37;;
66927;SDS011;59882;45.624;11.698;2023-04-03T15:30:03;9.57;;;1.85;;
66927;SDS011;59882;45.624;11.698;2023-04-03T15:32:30;7.47;;;1.63;;
66927;SDS011;59882;45.624;11.698;2023-04-03T15:34:56;7.17;;;1.23;;
66927;SDS011;59882;45.624;11.698;2023-04-03T15:37:22;8.10;;;1.42;;
66927;SDS011;59882;45.624;11.698;2023-04-03T15:39:48;8.52;;;1.10;;
66927;SDS011;59882;45.624;11.698;2023-04-03T15:42:13;10.23;;;2.57;;
66927;SDS011;59882;45.624;11.698;2023-04-03T15:44:39;10.67;;;2.73;;
66927;SDS011;59882;45.624;11.698;2023-04-03T15:47:05;16.15;;;3.42;;
66927;SDS011;59882;45.624;11.698;2023-04-03T15:49:32;9.55;;;2.92;;
66927;SDS011;59882;45.624;11.698;2023-04-03T15:51:58;11.90;;;2.93;;
66927;SDS011;59882;45.624;11.698;2023-04-03T15:54:24;9.77;;;3.00;;
66927;SDS011;59882;45.624;11.698;2023-04-03T15:56:50;10.48;;;2.88;;
66927;SDS011;59882;45.624;11.698;2023-04-03T15:59:16;10.93;;;2.30;;
66927;SDS011;59882;45.624;11.698;2023-04-03T16:01:42;9.27;;;2.40;;
66927;SDS011;59882;45.624;11.698;2023-04-03T16:04:08;8.52;;;2.65;;
66927;SDS011;59882;45.624;11.698;2023-04-03T16:06:35;7.13;;;1.43;;
66927;SDS011;59882;45.624;11.698;2023-04-03T16:09:01;10.05;;;2.13;;
66927;SDS011;59882;45.624;11.698;2023-04-03T16:11:28;16.08;;;2.17;;
66927;SDS011;59882;45.624;11.698;2023-04-03T16:13:54;6.97;;;1.53;;
66927;SDS011;59882;45.624;11.698;2023-04-03T16:16:19;9.80;;;1.47;;
66927;SDS011;59882;45.624;11.698;2023-04-03T16:18:46;7.38;;;1.27;;
66927;SDS011;59882;45.624;11.698;2023-04-03T16:21:12;5.50;;;1.40;;
66927;SDS011;59882;45.624;11.698;2023-04-03T16:23:39;8.60;;;2.00;;
66927;SDS011;59882;45.624;11.698;2023-04-03T16:26:06;9.57;;;2.00;;
66927;SDS011;59882;45.624;11.698;2023-04-03T16:28:32;8.20;;;2.20;;
66927;SDS011;59882;45.624;11.698;2023-04-03T16:30:57;6.25;;;1.25;;
66927;SDS011;59882;45.624;11.698;2023-04-03T16:33:26;6.88;;;1.60;;
66927;SDS011;59882;45.624;11.698;2023-04-03T16:35:52;5.37;;;1.10;;
66927;SDS011;59882;45.624;11.698;2023-04-03T16:38:18;6.50;;;1.25;;
66927;SDS011;59882;45.624;11.698;2023-04-03T16:40:44;7.88;;;1.55;;